Date,TemperatureHighF,TemperatureAvgF,TemperatureLowF,DewpointHighF,DewpointAvgF,DewpointLowF,HumidityHigh,HumidityAvg,HumidityLow,PressureMaxIn,PressureMinIn,WindSpeedMaxMPH,WindSpeedAvgMPH,GustSpeedMaxMPH,PrecipitationSumIn
2013-1-1,48,47,44,46,45,43,95,95,94,30.09,29.96,0,0,0,0.82
2013-1-2,37,36,35,34,34,33,92,91,90,30.14,30.07,4,1,5,0.00
2013-1-3,38,35,30,32,30,27,91,83,74,30.31,30.20,5,3,7,0.00
2013-1-4,41,37,30,26,23,21,79,58,44,30.45,30.36,8,3,10,0.00
2013-1-5,50,44,32,30,26,22,80,50,35,30.42,30.29,2,0,4,0.00
2013-1-6,43,40,36,37,35,33,94,83,72,30.24,30.16,5,1,5,0.04
2013-1-7,55,44,26,34,29,23,91,59,36,30.42,30.31,4,1,6,0.00
2013-1-8,59,50,33,47,41,30,88,73,64,30.42,30.30,10,0,10,0.00
2013-1-9,56,54,52,54,53,51,96,95,94,30.42,30.36,0,0,0,0.03
2013-1-10,64,61,54,54,53,53,96,76,68,30.40,30.27,5,2,9,0.00
2013-1-11,63,62,61,60,59,59,94,91,87,30.13,30.11,3,2,6,0.13
2013-1-12,70,66,61,63,60,57,96,82,74,30.10,30.00,3,1,7,0.04
2013-1-13,66,63,60,60,59,58,95,86,79,30.04,29.95,2,1,13,0.04
2013-1-14,47,45,43,46,44,41,95,94,94,30.17,30.03,3,1,5,1.72
2013-1-15,57,48,45,56,47,44,97,96,95,30.11,29.98,1,0,9,1.79
2013-1-16,55,53,50,54,52,49,96,96,95,29.97,29.92,3,0,3,0.71
2013-1-17,43,38,32,42,36,29,95,93,88,30.29,29.66,12,5,16,0.93
2013-1-18,49,37,30,32,28,26,88,72,45,30.53,30.30,8,2,10,0.00
2013-1-19,49,43,30,34,30,28,93,63,46,30.47,30.27,3,1,6,0.01
2013-1-24,38,30,24,17,11,6,62,45,30,30.37,30.29,7,2,10,0.00
2013-1-25,36,32,24,35,28,9,93,86,48,30.37,30.15,6,0,6,0.31
2013-1-26,48,41,29,34,30,26,93,66,48,30.33,30.19,9,1,9,0.01
2013-1-27,50,43,31,35,33,26,92,69,54,30.47,30.33,11,2,11,0.00
2013-1-28,52,48,43,49,45,35,94,89,73,30.39,30.27,4,0,10,0.00
2013-1-29,48,43,41,46,42,39,95,94,93,30.28,30.21,2,0,2,0.00